Terminal Aerodrome Forecast
Issued by NWS Charleston, WV

Current Version | Previous Version | Graphics & Text | Print | Product List | Glossary On
Versions: 1 2 3 4 5 6 7 8 9 10 11 12 13 14 15 16 17 18 19 20 21 22 23 24 25 26 27 28
000
FTUS41 KRLX 151900 AAB
TAFEKN
TAF AMD
KEKN 151909Z 1519/1618 30008KT 3SM -SHSN SCT008 OVC025
      TEMPO 1519/1522 2SM -SN BKN008
     FM152300 31015G23KT 6SM -SHSN OVC030
     FM160100 31013G18KT P6SM BKN050
     FM160800 32006KT P6SM SCT250=

USA.gov is the U.S. government's official web portal to all federal, state and local government web resources and services.